Tiempo atmosférico en la estación meteorológica de Caldes De Montbui, Barcelona (168 m.)

Fecha
DESCASC
Temp. máxima en grados centígrados (hora)
DESCASC
Temp. mínima en grados centígrados (hora)
DESCASC
Temp. media en grados centígrados
DESCASC
Racha de viento máxima en m/sg (hora)
DESCASC
Velocidad máxima media en intervalos de 10 minutos(hora)
DESCASC
Precipitaciones diarias en mm
DESCASC
Precipitaciones de 00:00 a 06:00 en mm
DESCASC
Precipitaciones de 06:00 a 12:00 en mm
DESCASC
Precipitaciones de 12:00 a 18:00 en mm
DESCASC
Precipitaciones de 18:00 a 24:00 en mm
DESCASC
17-09-2017 24.5 (15:40) 8.3 (07:00) 16.4 11.11 (17:00) 5.83 (16:30) 0 0 0 0 0
16-09-2017 21.1 (17:30) 8.2 (07:20) 14.7 8.61 (14:40) 5.28 (14:40) 0 0 0 0 0
15-09-2017 16.4 (00:00) 11.9 (23:59) 14.1 3.61 (02:10) 2.22 (17:40) 17.8 7.4 1.2 7.4 1.8
14-09-2017 28.8 (13:40) 16.4 (00:00) 22.6 8.06 (15:30) 5.28 (15:30) 23.2 0 0 23.2 0
13-09-2017 29.9 (15:20) 16.1 (00:00) 23 15 (16:00) 6.11 (17:20) 0 0 0 0 0
12-09-2017 24.2 (13:00) 17.9 (00:00) 21.1 9.44 (17:00) 6.39 (13:50) 0 0 0 0 0
11-09-2017 27.5 (14:20) 12.7 (00:00) 20.1 7.22 (16:00) 4.44 (14:50) 0 0 0 0 0
10-09-2017 25.3 (16:20) 11.2 (00:00) 18.2 8.61 (17:10) 4.44 (15:10) 0.2 0 0.2 0 0
09-09-2017 25.5 (11:40) 14.6 (00:00) 20.1 10.83 (13:50) 3.89 (13:50) 23.6 0 0 23.6 0
08-09-2017 24.4 (15:00) 15.5 (00:00) 19.9 8.06 (16:40) 5.56 (16:10) 0 0 0 0 0
07-09-2017 26.3 (14:10) 16.1 (00:00) 21.2 10.28 (15:10) 6.94 (15:40) 5.2 5.2 0 0 0
06-09-2017 27.8 (13:40) 19.3 (00:00) 23.5 10 (16:50) 6.67 (15:40) 0 0 0 0 0
05-09-2017 31.1 (15:30) 15.7 (00:00) 23.4 9.72 (16:40) 6.39 (15:20) 0 0 0 0 0
04-09-2017 28.1 (13:50) 18.3 (00:00) 23.2 8.06 (14:30) 5.83 (14:30) 1 0.6 0.4 0 0
03-09-2017 28.3 (15:00) 15.3 (00:00) 21.8 8.61 (15:30) 6.11 (15:40) 0 0 0 0 0
02-09-2017 27.1 (14:20) 14.5 (00:00) 20.8 10.28 (15:40) 6.94 (14:40) 0.2 0.2 0 0 0
01-09-2017 27 (15:30) 15.2 (00:00) 21.1 9.72 (18:00) 6.39 (16:00) 0 0 0 0 0
31-08-2017 24 (16:40) 17.5 (00:00) 20.8 6.11 (17:30) 3.61 (17:00) 2.6 0.4 2.2 0 0
30-08-2017 30 (13:20) 19.9 (00:00) 24.9 13.89 (04:00) 7.78 (04:00) 0.6 0.2 0.4 0 0
29-08-2017 33.8 (14:10) 19.5 (00:00) 26.6 10 (18:20) 6.39 (18:20) 0 0 0 0 0
28-08-2017 36.5 (14:20) 19.6 (00:00) 28.1 8.06 (14:30) 6.11 (14:30) 0 0 0 0 0
27-08-2017 32.5 (14:40) 20.5 (00:00) 26.5 9.17 (21:30) 5.83 (21:30) 0 0 0 0 0
26-08-2017 31.9 (16:50) 19.6 (00:00) 25.8 7.78 (13:50) 4.72 (13:20) 0 0 0 0 0
25-08-2017 32.5 (15:00) 17.8 (00:00) 25.1 7.78 (15:00) 5.28 (15:10) 0 0 0 0 0
24-08-2017 33 (14:20) 18.2 (00:00) 25.6 8.89 (16:40) 6.11 (17:10) 0.2 0.2 0 0 0
23-08-2017 32.1 (15:40) 16.7 (00:00) 24.4 8.33 (14:10) 5.28 (14:10) 0.6 0 0 0 0.6
22-08-2017 32.1 (15:10) 18.6 (00:00) 25.3 10 (16:00) 6.67 (16:00) 0 0 0 0 0

Gráficas

Temp. máximas Temp. mínimas Temp. medias Precipitaciones Rachas de viento máximas Velocidades máximas media en intervalos de 10 minutos

Datos horarios

Fecha y hora oficial Temperatura (ºC) Velocidad del viento (km/h) Dirección del viento Racha (km/h) Dirección de racha Precipitación (mm) Presión (hPa) Tendencia (hPa) Humedad (%)
2017-09-20 23:00:00 14.4 9 Noroeste 17 Noroeste 0 -- -- 76
2017-09-20 22:00:00 15.2 12 Noroeste 17 Noroeste 0 -- -- 75
2017-09-20 21:00:00 16.3 8 Noroeste 10 Noroeste 0 -- -- 71
2017-09-20 20:00:00 19.4 2 Este 14 Sudeste 0 -- -- 56
2017-09-20 19:00:00 21.4 9 Sudeste 18 Sudeste 0 -- -- 53
2017-09-20 18:00:00 22.3 13 Sudeste 21 Sudeste 0 -- -- 53
2017-09-20 17:00:00 22.9 14 Sudeste 25 Sudeste 0 -- -- 52
2017-09-20 16:00:00 23.1 12 Sudeste 22 Sudeste 0 -- -- 51
2017-09-20 15:00:00 22.3 9 Sudeste 24 Sudeste 0 -- -- 53
2017-09-20 14:00:00 22.3 9 Sudeste 21 Sudeste 0 -- -- 53
2017-09-20 13:00:00 21.2 10 Sudeste 20 Este 0 -- -- 60
2017-09-20 12:00:00 20.2 6 Sudeste 12 Sudeste 0 -- -- 66
2017-09-20 11:00:00 19.9 5 Sudeste 10 Nordeste 0 -- -- 68
2017-09-20 10:00:00 17.1 3 Este 9 Noroeste 0 -- -- 77
2017-09-20 09:00:00 14.1 5 Noroeste 9 Noroeste 0 -- -- 90
2017-09-20 08:00:00 11 2 Oeste 6 Noroeste 0 -- -- 96
2017-09-20 07:00:00 11.9 4 Noroeste 11 Oeste 0 -- -- 95
2017-09-20 06:00:00 11.9 5 Noroeste 7 Noroeste 0 -- -- 94
2017-09-20 05:00:00 12.9 8 Noroeste 11 Noroeste 0 -- -- 92
2017-09-20 04:00:00 13.7 6 Noroeste 9 Noroeste 0 -- -- 90
2017-09-20 03:00:00 14.1 2 Noroeste 15 Noroeste 0 -- -- 88
2017-09-20 02:00:00 14.8 9 Noroeste 15 Noroeste 0 -- -- 86
2017-09-20 01:00:00 15 10 Noroeste 17 Noroeste 0 -- -- 86
2017-09-20 00:00:00 14.5 14 Noroeste 17 Noroeste 0 -- -- 86
2017-09-19 23:00:00 14.9 8 Noroeste 17 Noroeste 0 -- -- 83
2017-09-19 22:00:00 15.7 10 Noroeste 16 Noroeste 0 -- -- 80
2017-09-19 21:00:00 16.5 5 Noroeste 6 Sudeste 0 -- -- 79
2017-09-19 20:00:00 19.1 6 Sudeste 25 Sudeste 0 -- -- 63
2017-09-19 19:00:00 21 17 Sudeste 26 Sudeste 0 -- -- 61
2017-09-19 18:00:00 22.1 9 Sudeste 24 Sudeste 0 -- -- 55
2017-09-19 17:00:00 21.9 13 Este 32 Sudeste 0 -- -- 57
2017-09-19 16:00:00 22.1 19 Sudeste 32 Este 0 -- -- 59
2017-09-19 15:00:00 22.6 21 Sudeste 33 Este 0 -- -- 57
2017-09-19 14:00:00 22.6 17 Sur 31 Sudeste 0 -- -- 40
2017-09-19 13:00:00 21 12 Sur 24 Sur 0 -- -- 56
2017-09-19 12:00:00 20 9 Este 18 Este 0 -- -- 66
2017-09-19 11:00:00 18.3 2 Noroeste 10 Este 0 -- -- 71
2017-09-19 10:00:00 16.7 4 Este 12 Este 0 -- -- 79
2017-09-19 09:00:00 15.1 4 Este 7 Noroeste 0 -- -- 90
2017-09-19 08:00:00 13 4 Oeste 5 Oeste 0 -- -- 96
2017-09-19 07:00:00 13.8 2 Noroeste 6 Oeste 0 -- -- 93
2017-09-19 06:00:00 14.9 0 Calma 6 Noroeste 0 -- -- 94
2017-09-19 05:00:00 15.3 0 Calma 8 Oeste 0 -- -- 92
2017-09-19 04:00:00 15.6 7 Noroeste 12 Noroeste 0 -- -- 90
2017-09-19 03:00:00 16 5 Noroeste 10 Noroeste 0 -- -- 89
2017-09-19 02:00:00 15.9 5 Noroeste 9 Noroeste 0 -- -- 90
2017-09-19 01:00:00 15.7 5 Noroeste 8 Noroeste 0 -- -- 91
2017-09-19 00:00:00 17.1 5 Sudoeste 9 Oeste 0 -- -- 85
2017-09-18 23:00:00 17.1 4 Norte 7 Noroeste 0 -- -- 83
2017-09-18 22:00:00 17.2 2 Noroeste 8 Este 0 -- -- 82
2017-09-18 21:00:00 17.4 3 Este 13 Este 0 -- -- 79
2017-09-18 20:00:00 17.7 10 Este 19 Sudeste 0 -- -- 78
2017-09-18 19:00:00 18.8 9 Sudeste 20 Sudeste 0 -- -- 75
2017-09-18 18:00:00 20.6 12 Sudeste 21 Sur 0 -- -- 68
2017-09-18 17:00:00 20.1 4 Este 14 Norte 0 -- -- 66
2017-09-18 16:00:00 19.3 9 Norte 16 Norte 0 -- -- 72
2017-09-18 15:00:00 19.5 4 Norte 15 Norte 0 -- -- 71
2017-09-18 14:00:00 19.2 5 Este 10 Nordeste 0 -- -- 73
2017-09-18 13:00:00 17.4 5 Este 10 Este 0 -- -- 84
2017-09-18 12:00:00 16 3 Noroeste 18 Oeste 2.8 -- -- 85
2017-09-18 11:00:00 17.8 3 Sudeste 6 Sur 0 -- -- 69
2017-09-18 10:00:00 16.8 3 Noroeste 9 Nordeste 0 -- -- 73
2017-09-18 09:00:00 16.3 4 Noroeste 8 Norte 0 -- -- 76
2017-09-18 08:00:00 15.8 0 Calma 8 Oeste 0 -- -- 78
2017-09-18 07:00:00 15.6 3 Oeste 5 Sudoeste 0 -- -- 84
2017-09-18 06:00:00 15.9 3 Noroeste 8 Norte 0 -- -- 75
2017-09-18 05:00:00 15.6 3 Noroeste 10 Noroeste 0 -- -- 73
2017-09-18 04:00:00 14.6 7 Noroeste 11 Oeste 0 -- -- 86
2017-09-18 03:00:00 15.1 7 Noroeste 10 Oeste 0 -- -- 81
2017-09-18 02:00:00 15.5 7 Noroeste 12 Noroeste 0 -- -- 80
2017-09-18 01:00:00 16.2 4 Noroeste 16 Noroeste 0 -- -- 76
2017-09-18 00:00:00 16.6 5 Noroeste 8 Noroeste 0 -- -- 77
2017-09-17 23:00:00 16 4 Noroeste 5 Oeste 0 -- -- 83
2017-09-17 22:00:00 16.4 0 Calma 4 Oeste 0 -- -- 80
2017-09-17 21:00:00 18.1 3 Noroeste 13 Sudoeste 0 -- -- 69
2017-09-17 20:00:00 20.4 5 Sur 18 Sur 0 -- -- 56
2017-09-17 19:00:00 21.4 10 Sur 24 Sur 0 -- -- 56
2017-09-17 18:00:00 22.2 14 Sur 27 Oeste 0 -- -- 51
2017-09-17 17:00:00 24.1 14 Sudoeste 40 Noroeste 0 -- -- 32
2017-09-17 16:00:00 24 18 Oeste 32 Oeste 0 -- -- 31
2017-09-17 15:00:00 23.6 13 Sudoeste 30 Sudoeste 0 -- -- 35
2017-09-17 14:00:00 22.7 14 Sudoeste 31 Sur 0 -- -- 39
2017-09-17 13:00:00 21.3 13 Sudoeste 28 Sudoeste 0 -- -- 41
2017-09-17 12:00:00 19.5 5 Nordeste 20 Sudeste 0 -- -- 46
2017-09-17 11:00:00 17.5 8 Sudeste 13 Este 0 -- -- 59
2017-09-17 10:00:00 15 2 Sudeste 4 Este 0 -- -- 63
2017-09-17 09:00:00 10.2 0 Calma 9 Este 0 -- -- 91
2017-09-17 08:00:00 8.3 3 Sudeste 9 Sudeste 0 -- -- 94
2017-09-17 07:00:00 8.3 4 Noroeste 13 Sudeste 0 -- -- 93
2017-09-17 06:00:00 9.3 5 Noroeste 12 Noroeste 0 -- -- 87
2017-09-17 05:00:00 9.3 3 Norte 14 Noroeste 0 -- -- 88
2017-09-17 04:00:00 9.4 7 Noroeste 13 Noroeste 0 -- -- 88
2017-09-17 03:00:00 9.9 5 Noroeste 13 Oeste 0 -- -- 87
2017-09-17 02:00:00 10.3 10 Noroeste 13 Noroeste 0 -- -- 85
2017-09-17 01:00:00 10.9 7 Noroeste 14 Noroeste 0 -- -- 84
2017-09-17 00:00:00 11.5 8 Noroeste 13 Oeste 0 -- -- 82
2017-09-16 23:00:00 12.4 2 Noroeste 14 Noroeste 0 -- -- 80
2017-09-16 22:00:00 13.5 6 Noroeste 15 Noroeste 0 -- -- 74
2017-09-16 21:00:00 14.9 7 Noroeste 10 Noroeste 0 -- -- 69
2017-09-16 20:00:00 17.9 7 Oeste 23 Sudoeste 0 -- -- 54
2017-09-16 19:00:00 20.6 11 Sudoeste 20 Sudoeste 0 -- -- 45
2017-09-16 18:00:00 20.9 10 Sudoeste 23 Sur 0 -- -- 44
2017-09-16 17:00:00 20.4 10 Sur 22 Sudoeste 0 -- -- 48
2017-09-16 16:00:00 20.3 16 Sudoeste 26 Sudeste 0 -- -- 51
2017-09-16 15:00:00 19.8 18 Sudeste 31 Sur 0 -- -- 59
2017-09-16 14:00:00 19.9 13 Sudeste 23 Este 0 -- -- 62
2017-09-16 13:00:00 18.8 6 Sudeste 14 Sudeste 0 -- -- 62
2017-09-16 12:00:00 17.7 4 Sudeste 12 Sur 0 -- -- 68
2017-09-16 11:00:00 15.1 5 Sudeste 12 Este 0 -- -- 82
2017-09-16 10:00:00 13.3 6 Sudeste 9 Este 0 -- -- 92
2017-09-16 09:00:00 11 0 Calma 8 Noroeste 0 -- -- 98
2017-09-16 08:00:00 8.5 2 Noroeste 7 Noroeste 0 -- -- 99
2017-09-16 07:00:00 8.3 0 Calma 6 Noroeste 0 -- -- 99
2017-09-16 06:00:00 8.8 3 Noroeste 6 Noroeste 0 -- -- 98
2017-09-16 05:00:00 9.3 0 Calma 9 Noroeste 0 -- -- 97
2017-09-16 04:00:00 9.6 5 Norte 8 Noroeste 0 -- -- 97
2017-09-16 03:00:00 10.2 5 Noroeste 9 Noroeste 0 -- -- 96
2017-09-16 02:00:00 10.5 4 Noroeste 7 Noroeste 0 -- -- 97
2017-09-16 01:00:00 10.9 3 Oeste 8 Noroeste 0 -- -- 97
2017-09-16 00:00:00 11.9 3 Oeste 10 Oeste 0 -- -- 96
2017-09-15 23:00:00 12.8 4 Oeste 9 Noroeste 0 -- -- 97
2017-09-15 22:00:00 13.3 4 Sur 7 Sur 0 -- -- 97
2017-09-15 21:00:00 13.4 4 Sudeste 6 Sur 0.2 -- -- 96
2017-09-15 20:00:00 13.4 3 Nordeste 5 Nordeste 0.8 -- -- 96
2017-09-15 19:00:00 13.4 3 Este 7 Este 0.8 -- -- 96
2017-09-15 18:00:00 13.7 5 Sudeste 10 Este 0.8 -- -- 96
2017-09-15 17:00:00 13.9 3 Nordeste 8 Sudeste 1.2 -- -- 96
2017-09-15 16:00:00 13.8 3 Sur 8 Este 1.8 -- -- 96
2017-09-15 15:00:00 14 2 Este 6 Noroeste 1 -- -- 94
2017-09-15 14:00:00 13.7 0 Calma 7 Este 1.2 -- -- 95
2017-09-15 13:00:00 13.7 3 Nordeste 8 Nordeste 1.4 -- -- 95
2017-09-15 12:00:00 13.5 5 Este 9 Nordeste 0.6 -- -- 96
2017-09-15 11:00:00 13.5 3 Nordeste 8 Nordeste 0.4 -- -- 96
2017-09-15 10:00:00 13.4 0 Calma 6 Nordeste 0.2 -- -- 94
2017-09-15 09:00:00 13.8 0 Calma 8 Norte 0 -- -- 95
2017-09-15 08:00:00 13.9 2 Sur 8 Este 0 -- -- 95
2017-09-15 07:00:00 14.4 3 Este 8 Sudeste 0 -- -- 96
2017-09-15 06:00:00 14.3 4 Este 7 Nordeste 0 -- -- 96
2017-09-15 05:00:00 14.3 4 Sur 8 Sudeste 0 -- -- 96
2017-09-15 04:00:00 14.5 4 Sudeste 10 Este 0.6 -- -- 96
2017-09-15 03:00:00 14.4 3 Este 13 Noroeste 2.8 -- -- 94
2017-09-15 02:00:00 14.4 5 Noroeste 11 Este 3.6 -- -- 90
2017-09-15 01:00:00 15.6 4 Nordeste 9 Nordeste 0.4 -- -- 86
2017-09-15 00:00:00 16.4 2 Sudeste 11 Noroeste 0 -- -- 79
2017-09-14 23:00:00 16.6 5 Noroeste 15 Noroeste 0 -- -- 76
2017-09-14 22:00:00 17.5 6 Noroeste 15 Norte 0 -- -- 79
2017-09-14 21:00:00 19.7 4 Este 7 Sudoeste 0 -- -- 93
2017-09-14 20:00:00 19.9 2 Noroeste 5 Noroeste 0 -- -- 89
2017-09-14 19:00:00 20 0 Calma 7 Sudeste 0 -- -- 90
2017-09-14 18:00:00 19.5 3 Sudeste 22 Nordeste 10.4 -- -- 97
2017-09-14 17:00:00 19.7 12 Oeste 27 Sudeste 12.8 -- -- 95
2017-09-14 16:00:00 24.3 16 Este 29 Este 0 -- -- 76
2017-09-14 15:00:00 26.4 12 Este 24 Sudeste 0 -- -- 69
2017-09-14 14:00:00 28.4 10 Este 25 Sudeste 0 -- -- 58
2017-09-14 13:00:00 27.7 8 Sudoeste 22 Sur 0 -- -- 58
2017-09-14 12:00:00 25.9 8 Sur 17 Sudeste 0 -- -- 65
2017-09-14 11:00:00 23.2 6 Sudeste 10 Sur 0 -- -- 79
2017-09-14 10:00:00 21.9 5 Sudeste 9 Oeste 0 -- -- 82
2017-09-14 09:00:00 20 7 Noroeste 9 Noroeste 0 -- -- 83
2017-09-14 08:00:00 18.5 0 Calma 8 Noroeste 0 -- -- 88
2017-09-14 07:00:00 18 8 Noroeste 11 Noroeste 0 -- -- 89
2017-09-14 06:00:00 18.5 6 Noroeste 8 Noroeste 0 -- -- 82
2017-09-14 05:00:00 19.1 4 Noroeste 8 Noroeste 0 -- -- 81
2017-09-14 04:00:00 19.2 4 Noroeste 9 Noroeste 0 -- -- 83
2017-09-14 03:00:00 20.2 0 Calma 8 Oeste 0 -- -- 90
2017-09-14 02:00:00 19.9 3 Sudoeste 9 Sudoeste 0 -- -- 89
2017-09-14 01:00:00 20 2 Sur 6 Sudoeste 0 -- -- 89
2017-09-14 00:00:00 20.6 3 Sur 8 Sudeste 0 -- -- 84
2017-09-13 23:00:00 21.3 3 Sur 17 Sur 0 -- -- 78
2017-09-13 22:00:00 21.9 5 Sur 13 Sur 0 -- -- 70
2017-09-13 21:00:00 23 7 Sudoeste 23 Sudoeste 0 -- -- 64
2017-09-13 20:00:00 24.6 11 Sudoeste 33 Sudoeste 0 -- -- 53
2017-09-13 19:00:00 26.7 18 Sudoeste 31 Sudoeste 0 -- -- 50
2017-09-13 18:00:00 27.6 22 Sudeste 35 Sur 0 -- -- 51
2017-09-13 17:00:00 29.1 17 Sur 27 Sudeste 0 -- -- 44
2017-09-13 16:00:00 29.6 19 Sur 54 Sudeste 0 -- -- 36
2017-09-13 15:00:00 29.3 14 Sudoeste 30 Sur 0 -- -- 35
2017-09-13 14:00:00 28 13 Sur 31 Sudeste 0 -- -- 37
2017-09-13 13:00:00 26.7 10 Sur 27 Sudeste 0 -- -- 39
2017-09-13 12:00:00 24.5 10 Sudeste 19 Sudeste 0 -- -- 57
2017-09-13 11:00:00 23 4 Este 12 Sudeste 0 -- -- 68
2017-09-13 10:00:00 21 3 Este 12 Este 0 -- -- 78
2017-09-13 09:00:00 18.5 2 Nordeste 8 Sudoeste 0 -- -- 91
2017-09-13 08:00:00 17.1 5 Oeste 14 Noroeste 0 -- -- 92
2017-09-13 07:00:00 16.4 4 Norte 12 Noroeste 0 -- -- 94
2017-09-13 06:00:00 16.5 6 Noroeste 9 Noroeste 0 -- -- 95
2017-09-13 05:00:00 16.6 5 Oeste 9 Noroeste 0 -- -- 93
2017-09-13 04:00:00 17.2 3 Noroeste 9 Noroeste 0 -- -- 91
2017-09-13 03:00:00 17.7 3 Noroeste 7 Noroeste 0 -- -- 90
2017-09-13 02:00:00 17.9 4 Noroeste 9 Noroeste 0 -- -- 90
2017-09-13 01:00:00 18.6 4 Noroeste 6 Noroeste 0 -- -- 89
2017-09-13 00:00:00 18 3 Noroeste 5 Noroeste 0 -- -- 91
2017-09-12 23:00:00 18.4 2 Noroeste 4 Sur 0 -- -- 88
2017-09-12 22:00:00 19.4 3 Sur 9 Sur 0 -- -- 83
2017-09-12 21:00:00 19.8 5 Sudeste 14 Sudeste 0 -- -- 83
2017-09-12 20:00:00 20.1 6 Sudeste 23 Sudeste 0 -- -- 81
2017-09-12 19:00:00 20.9 14 Sudeste 26 Sudeste 0 -- -- 74
2017-09-12 18:00:00 22.1 18 Sudeste 34 Sudeste 0 -- -- 68
2017-09-12 17:00:00 22.8 22 Sudeste 34 Sudeste 0 -- -- 66
2017-09-12 16:00:00 23.2 19 Sudeste 33 Sudeste 0 -- -- 65
2017-09-12 15:00:00 23.6 18 Sudeste 31 Este 0 -- -- 62
2017-09-12 14:00:00 22.9 21 Sudeste 33 Sudeste 0 -- -- 64
2017-09-12 13:00:00 24.2 16 Sur 31 Sudoeste 0 -- -- 44
2017-09-12 12:00:00 22.8 13 Sudoeste 25 Sudoeste 0 -- -- 47
2017-09-12 11:00:00 20.4 8 Noroeste 13 Noroeste 0 -- -- 61
2017-09-12 10:00:00 20.1 3 Sur 10 Sur 0 -- -- 63
2017-09-12 09:00:00 18.7 2 Sudeste 6 Oeste 0 -- -- 77
2017-09-12 08:00:00 18.3 4 Noroeste 10 Sur 0 -- -- 81
2017-09-12 07:00:00 19.3 6 Sur 17 Sur 0 -- -- 84
2017-09-12 06:00:00 19.2 4 Sur 10 Sur 0 -- -- 90
2017-09-12 05:00:00 19.4 5 Sudeste 9 Sudeste 0 -- -- 90
2017-09-12 04:00:00 19.7 7 Oeste 10 Sudoeste 0 -- -- 88
2017-09-12 03:00:00 20 4 Noroeste 11 Noroeste 0 -- -- 84
2017-09-12 02:00:00 19.9 5 Noroeste 9 Oeste 0 -- -- 85
2017-09-12 01:00:00 20.3 3 Norte 9 Oeste 0 -- -- 81
2017-09-12 00:00:00 20.1 3 Norte 13 Oeste 0 -- -- 82
2017-09-11 23:00:00 19 5 Noroeste 9 Noroeste 0 -- -- 87
2017-09-11 22:00:00 18.9 6 Noroeste 8 Noroeste 0 -- -- 86
2017-09-11 21:00:00 20.1 4 Norte 11 Nordeste 0 -- -- 81
2017-09-11 20:00:00 21.4 5 Nordeste 19 Nordeste 0 -- -- 75
2017-09-11 19:00:00 23.1 7 Nordeste 20 Este 0 -- -- 66
2017-09-11 18:00:00 24.2 9 Este 21 Este 0 -- -- 56
2017-09-11 17:00:00 24.3 12 Este 25 Este 0 -- -- 60
2017-09-11 16:00:00 25.7 12 Este 26 Este 0 -- -- 46
2017-09-11 15:00:00 26 14 Sudeste 23 Sudeste 0 -- -- 45
2017-09-11 14:00:00 27.1 7 Nordeste 20 Este 0 -- -- 43
2017-09-11 13:00:00 26.3 7 Este 15 Este 0 -- -- 44
2017-09-11 12:00:00 24 3 Nordeste 10 Sudeste 0 -- -- 48
2017-09-11 11:00:00 21.8 7 Este 12 Este 0 -- -- 52
2017-09-11 10:00:00 19.2 9 Sudeste 12 Este 0 -- -- 63
2017-09-11 09:00:00 16.3 5 Sudeste 6 Sudeste 0 -- -- 74
2017-09-11 08:00:00 12.7 0 Calma 10 Sudeste 0 -- -- 87
2017-09-11 07:00:00 13.6 0 Calma 11 Oeste 0 -- -- 79
2017-09-11 06:00:00 15.1 9 Oeste 15 Oeste 0 -- -- 72
2017-09-11 05:00:00 13.3 0 Calma 4 Este 0 -- -- 91
2017-09-11 04:00:00 14.1 0 Calma 8 Sudoeste 0 -- -- 87
2017-09-11 03:00:00 14.6 4 Noroeste 7 Noroeste 0 -- -- 86
2017-09-11 02:00:00 15.4 3 Sudeste 12 Oeste 0 -- -- 83
2017-09-11 01:00:00 15.6 2 Oeste 12 Noroeste 0 -- -- 82
2017-09-11 00:00:00 15.8 8 Noroeste 17 Noroeste 0 -- -- 80
2017-09-10 23:00:00 15.6 12 Noroeste 18 Noroeste 0 -- -- 77
2017-09-10 22:00:00 16 10 Noroeste 13 Noroeste 0 -- -- 77
2017-09-10 21:00:00 17.2 8 Noroeste 10 Noroeste 0 -- -- 73
2017-09-10 20:00:00 20.4 2 Nordeste 16 Este 0 -- -- 55
2017-09-10 19:00:00 21.4 6 Nordeste 16 Nordeste 0 -- -- 52
2017-09-10 18:00:00 22.5 9 Este 31 Este 0 -- -- 49
2017-09-10 17:00:00 24.1 11 Este 30 Noroeste 0 -- -- 42
2017-09-10 16:00:00 24.9 14 Noroeste 28 Noroeste 0 -- -- 31
2017-09-10 15:00:00 23.5 16 Sudeste 26 Sudeste 0 -- -- 43
2017-09-10 14:00:00 23.9 8 Oeste 25 Oeste 0 -- -- 35
2017-09-10 13:00:00 22.3 12 Sudeste 18 Oeste 0 -- -- 47
2017-09-10 12:00:00 21.2 13 Noroeste 21 Oeste 0 -- -- 45
2017-09-10 11:00:00 19.3 9 Noroeste 17 Noroeste 0.2 -- -- 50
2017-09-10 10:00:00 16.6 0 Calma 7 Oeste 0 -- -- 66
2017-09-10 09:00:00 13.6 4 Sudeste 9 Noroeste 0 -- -- 86
2017-09-10 08:00:00 11.3 4 Sudeste 7 Sudeste 0 -- -- 98
2017-09-10 07:00:00 11.4 0 Calma 9 Sudoeste 0 -- -- 97
2017-09-10 06:00:00 12 3 Oeste 7 Noroeste 0 -- -- 96
2017-09-10 05:00:00 12.7 4 Noroeste 6 Oeste 0 -- -- 97
2017-09-10 04:00:00 13.6 0 Calma 10 Noroeste 0 -- -- 95
2017-09-10 03:00:00 13.8 3 Noroeste 8 Oeste 0 -- -- 96
2017-09-10 02:00:00 14 2 Sudoeste 7 Sudoeste 0 -- -- 96
2017-09-10 01:00:00 14.1 3 Sudoeste 6 Sudeste 0 -- -- 96
2017-09-10 00:00:00 14.6 3 Sudoeste 7 Sudoeste 0 -- -- 93
2017-09-09 23:00:00 14.8 3 Sudeste 10 Noroeste 0 -- -- 91
2017-09-09 22:00:00 14.7 5 Noroeste 10 Noroeste 0 -- -- 88
2017-09-09 21:00:00 14.8 4 Noroeste 18 Norte 0 -- -- 91
2017-09-09 20:00:00 15.3 5 Norte 16 Nordeste 0 -- -- 92
2017-09-09 19:00:00 17.1 4 Nordeste 9 Este 0 -- -- 95
2017-09-09 18:00:00 16.9 4 Nordeste 14 Sudeste 1 -- -- 97
2017-09-09 17:00:00 17 6 Sudeste 9 Sur 0.4 -- -- 96
2017-09-09 16:00:00 16.8 3 Sudoeste 10 Noroeste 14 -- -- 95
2017-09-09 15:00:00 17.9 4 Norte 17 Este 1.6 -- -- 88
2017-09-09 14:00:00 19.2 6 Nordeste 39 Noroeste 6.6 -- -- 83
2017-09-09 13:00:00 24 9 Nordeste 19 Este 0 -- -- 63
2017-09-09 12:00:00 25.1 9 Este 19 Sudeste 0 -- -- 70
2017-09-09 11:00:00 23.7 6 Nordeste 13 Norte 0 -- -- 74
2017-09-09 10:00:00 21.5 0 Calma 6 Noroeste 0 -- -- 81
2017-09-09 09:00:00 19.7 2 Oeste 5 Este 0 -- -- 86
2017-09-09 08:00:00 18.8 0 Calma 6 Este 0 -- -- 88
2017-09-09 07:00:00 19.2 0 Calma 6 Noroeste 0 -- -- 85
2017-09-09 06:00:00 18.5 2 Oeste 6 Noroeste 0 -- -- 89
2017-09-09 05:00:00 18 2 Noroeste 8 Noroeste 0 -- -- 88
2017-09-09 04:00:00 17.4 5 Noroeste 9 Noroeste 0 -- -- 89
2017-09-09 03:00:00 18 0 Calma 6 Oeste 0 -- -- 88
2017-09-09 02:00:00 18.2 3 Norte 13 Noroeste 0 -- -- 86
2017-09-09 01:00:00 17.9 8 Noroeste 13 Noroeste 0 -- -- 87
2017-09-09 00:00:00 17 9 Noroeste 12 Noroeste 0 -- -- 91
2017-09-08 23:00:00 17.6 8 Noroeste 11 Noroeste 0 -- -- 89
2017-09-08 22:00:00 18.9 0 Calma 9 Noroeste 0 -- -- 85
2017-09-08 21:00:00 20.3 3 Noroeste 8 Este 0 -- -- 80
2017-09-08 20:00:00 21.6 4 Este 14 Sudeste 0 -- -- 76
2017-09-08 19:00:00 21.9 10 Sudeste 19 Sudeste 0 -- -- 74
2017-09-08 18:00:00 22.4 12 Este 27 Este 0 -- -- 71
2017-09-08 17:00:00 23.3 18 Sudeste 29 Sudeste 0 -- -- 67
2017-09-08 16:00:00 23.6 17 Sudeste 29 Este 0 -- -- 65
2017-09-08 15:00:00 24.4 15 Sudeste 27 Sudeste 0 -- -- 63
2017-09-08 14:00:00 23.1 15 Sudeste 26 Sudeste 0 -- -- 66
2017-09-08 13:00:00 22.6 8 Este 22 Sudeste 0 -- -- 67
2017-09-08 12:00:00 22.1 7 Sudeste 21 Este 0 -- -- 70
2017-09-08 11:00:00 21.9 8 Este 19 Este 0 -- -- 71
2017-09-08 10:00:00 20.2 3 Noroeste 7 Noroeste 0 -- -- 79
2017-09-08 09:00:00 17.8 4 Noroeste 12 Oeste 0 -- -- 85
2017-09-08 08:00:00 16.3 9 Noroeste 13 Oeste 0 -- -- 88
2017-09-08 07:00:00 16.1 8 Noroeste 13 Noroeste 0 -- -- 88
2017-09-08 06:00:00 15.6 9 Noroeste 13 Noroeste 0 -- -- 89
2017-09-08 05:00:00 15.9 8 Oeste 14 Noroeste 0 -- -- 90
2017-09-08 04:00:00 16.9 11 Noroeste 15 Oeste 0 -- -- 87
2017-09-08 03:00:00 17.2 10 Noroeste 14 Noroeste 0 -- -- 89
2017-09-08 02:00:00 18.1 9 Noroeste 14 Noroeste 0 -- -- 89
2017-09-08 01:00:00 18.7 9 Noroeste 13 Noroeste 0 -- -- 90
2017-09-08 00:00:00 19.8 5 Noroeste 9 Noroeste 0 -- -- 90
2017-09-07 23:00:00 20.7 3 Noroeste 4 Noroeste 0 -- -- 89
2017-09-07 22:00:00 21.5 2 Nordeste 9 Sudeste 0 -- -- 85
2017-09-07 21:00:00 22 4 Este 23 Sudeste 0 -- -- 82
2017-09-07 20:00:00 22.2 13 Sudeste 23 Sudeste 0 -- -- 80
2017-09-07 19:00:00 22.5 15 Sudeste 29 Sudeste 0 -- -- 77
2017-09-07 18:00:00 23.1 19 Sudeste 31 Sudeste 0 -- -- 73
2017-09-07 17:00:00 23.7 21 Sudeste 33 Sudeste 0 -- -- 69
2017-09-07 16:00:00 25.2 23 Sudeste 37 Sudeste 0 -- -- 63
2017-09-07 15:00:00 25.9 22 Sudeste 33 Sudeste 0 -- -- 59
2017-09-07 14:00:00 26.1 14 Sudeste 35 Sur 0 -- -- 49
2017-09-07 13:00:00 25 14 Sur 31 Sudeste 0 -- -- 51
2017-09-07 12:00:00 23.8 14 Sur 21 Sudeste 0 -- -- 52
2017-09-07 11:00:00 22.3 6 Sudeste 12 Sudeste 0 -- -- 56
2017-09-07 10:00:00 19.9 5 Sudeste 9 Este 0 -- -- 68
2017-09-07 09:00:00 17.5 0 Calma 4 Nordeste 0 -- -- 80
2017-09-07 08:00:00 16.1 0 Calma 6 Nordeste 0 -- -- 90
2017-09-07 07:00:00 16.9 0 Calma 6 Sudoeste 0 -- -- 92
2017-09-07 06:00:00 17.9 0 Calma 11 Sudeste 0 -- -- 91
2017-09-07 05:00:00 19.3 6 Oeste 21 Oeste 0 -- -- 79
2017-09-07 04:00:00 20.2 4 Noroeste 8 Noroeste 0 -- -- 93
2017-09-07 03:00:00 20.6 4 Norte 9 Norte 4.2 -- -- 93
2017-09-07 02:00:00 21.2 4 Este 9 Este 0 -- -- 92
2017-09-07 01:00:00 21.5 3 Norte 7 Nordeste 1 -- -- 91
2017-09-07 00:00:00 21.6 0 Calma 6 Noroeste 0 -- -- 91
2017-09-06 23:00:00 21.5 5 Noroeste 9 Norte 0 -- -- 91
2017-09-06 22:00:00 21.7 5 Noroeste 13 Noroeste 0 -- -- 90
2017-09-06 21:00:00 22.1 8 Norte 15 Norte 0 -- -- 87
2017-09-06 20:00:00 24 9 Este 25 Sudeste 0 -- -- 79
2017-09-06 19:00:00 24.3 17 Sudeste 31 Sudeste 0 -- -- 78
2017-09-06 18:00:00 24.8 19 Sudeste 33 Sudeste 0 -- -- 77
2017-09-06 17:00:00 25 21 Sudeste 36 Sudeste 0 -- -- 76
2017-09-06 16:00:00 26.2 21 Sudeste 35 Sudeste 0 -- -- 69
2017-09-06 15:00:00 27 18 Sudeste 28 Sudeste 0 -- -- 67
2017-09-06 14:00:00 27 21 Sudeste 31 Sudeste 0 -- -- 66
2017-09-06 13:00:00 26.5 6 Sudeste 15 Sudeste 0 -- -- 65
2017-09-06 12:00:00 26.2 6 Sudeste 16 Sudeste 0 -- -- 64
2017-09-06 11:00:00 25.1 5 Este 12 Este 0 -- -- 70
2017-09-06 10:00:00 24.4 5 Sudeste 10 Sudeste 0 -- -- 71
2017-09-06 09:00:00 22.1 2 Nordeste 8 Oeste 0 -- -- 80
2017-09-06 08:00:00 19.7 4 Noroeste 9 Noroeste 0 -- -- 85
2017-09-06 07:00:00 19.4 5 Noroeste 8 Noroeste 0 -- -- 85
2017-09-06 06:00:00 19.6 5 Noroeste 9 Noroeste 0 -- -- 85
2017-09-06 05:00:00 19.5 8 Noroeste 10 Noroeste 0 -- -- 85
2017-09-06 04:00:00 19.4 5 Noroeste 10 Noroeste 0 -- -- 85
2017-09-06 03:00:00 20.1 6 Noroeste 8 Noroeste 0 -- -- 85
2017-09-06 02:00:00 20.7 5 Noroeste 9 Noroeste 0 -- -- 83
2017-09-06 01:00:00 20.9 5 Noroeste 7 Oeste 0 -- -- 83
2017-09-06 00:00:00 22 0 Calma 8 Noroeste 0 -- -- 81
2017-09-05 23:00:00 23 3 Noroeste 6 Norte 0 -- -- 81
2017-09-05 22:00:00 24.4 3 Norte 5 Nordeste 0 -- -- 75
2017-09-05 21:00:00 25.4 3 Nordeste 15 Este 0 -- -- 70
2017-09-05 20:00:00 27 9 Este 22 Este 0 -- -- 62
2017-09-05 19:00:00 29 14 Sudeste 28 Sudeste 0 -- -- 52
2017-09-05 18:00:00 30.3 16 Sudeste 30 Sudeste 0 -- -- 42
2017-09-05 17:00:00 30.7 20 Sudeste 35 Sudeste 0 -- -- 41
2017-09-05 16:00:00 30.9 22 Sudeste 34 Sudeste 0 -- -- 40
2017-09-05 15:00:00 31 21 Sudeste 35 Este 0 -- -- 43
2017-09-05 14:00:00 30.6 19 Sudeste 28 Sudeste 0 -- -- 48
2017-09-05 13:00:00 30 12 Sur 25 Sur 0 -- -- 37
2017-09-05 12:00:00 28.5 13 Sur 33 Sudoeste 0 -- -- 45
2017-09-05 11:00:00 26.1 7 Este 13 Este 0 -- -- 58
2017-09-05 10:00:00 22.7 3 Sudeste 6 Sudeste 0 -- -- 70
2017-09-05 09:00:00 -- 0 Calma 5 Noroeste 0 -- -- --
2017-09-05 08:00:00 16.3 3 Noroeste 7 Noroeste 0 -- -- 92
2017-09-05 07:00:00 15.8 3 Noroeste 5 Noroeste 0 -- -- 91
2017-09-05 06:00:00 16.6 4 Noroeste 11 Noroeste 0 -- -- 89
2017-09-05 05:00:00 16.9 6 Noroeste 9 Noroeste 0 -- -- 88
2017-09-05 04:00:00 17.5 3 Noroeste 12 Noroeste 0 -- -- 86
2017-09-05 03:00:00 17.9 5 Noroeste 13 Noroeste 0 -- -- 85
2017-09-05 02:00:00 18.3 9 Noroeste 14 Noroeste 0 -- -- 84
2017-09-05 01:00:00 18.4 9 Noroeste 14 Noroeste 0 -- -- 84
2017-09-05 00:00:00 18.9 9 Noroeste 13 Noroeste 0 -- -- 83
2017-09-04 23:00:00 19.2 6 Noroeste 11 Noroeste 0 -- -- 83
2017-09-04 22:00:00 20 7 Noroeste 15 Noroeste 0 -- -- 80
2017-09-04 21:00:00 21.3 4 Noroeste 5 Noroeste 0 -- -- 75
2017-09-04 20:00:00 23.4 3 Nordeste 15 Sudeste 0 -- -- 69
2017-09-04 19:00:00 24.7 7 Este 15 Este 0 -- -- 61
2017-09-04 18:00:00 25.7 9 Este 20 Sudeste 0 -- -- 58
2017-09-04 17:00:00 26.1 8 Este 19 Este 0 -- -- 57
2017-09-04 16:00:00 26 8 Este 23 Este 0 -- -- 59
2017-09-04 15:00:00 26.2 16 Sudeste 29 Sudeste 0 -- -- 59
2017-09-04 14:00:00 28 12 Sudeste 22 Este 0 -- -- 52
2017-09-04 13:00:00 27.1 10 Sudeste 20 Sudeste 0 -- -- 54
2017-09-04 12:00:00 26 5 Este 15 Sudeste 0.2 -- -- 58
2017-09-04 11:00:00 23.2 3 Oeste 13 Nordeste 0 -- -- 69
2017-09-04 10:00:00 20.2 3 Este 6 Oeste 0 -- -- 90
2017-09-04 09:00:00 19.1 5 Oeste 7 Oeste 0.2 -- -- 95
2017-09-04 08:00:00 18.6 0 Calma 10 Noroeste 0 -- -- 93
2017-09-04 07:00:00 18.5 4 Norte 10 Noroeste 0 -- -- 93
2017-09-04 06:00:00 18.7 4 Noroeste 8 Oeste 0 -- -- 94
2017-09-04 05:00:00 18.7 4 Sudoeste 14 Sur 0.2 -- -- 95
2017-09-04 04:00:00 19.1 0 Calma 8 Oeste 0.2 -- -- 92
2017-09-04 03:00:00 19.3 5 Noroeste 8 Noroeste 0.2 -- -- 90
2017-09-04 02:00:00 19.6 2 Norte 6 Sudoeste 0 -- -- 82
2017-09-04 01:00:00 19.8 4 Oeste 6 Sudoeste 0 -- -- 81
2017-09-04 00:00:00 20.1 3 Noroeste 6 Noroeste 0 -- -- 80
2017-09-03 23:00:00 20.4 4 Noroeste 7 Noroeste 0 -- -- 80
2017-09-03 22:00:00 21 3 Norte 7 Norte 0 -- -- 78
2017-09-03 21:00:00 21.6 3 Este 12 Nordeste 0 -- -- 75
2017-09-03 20:00:00 22.5 5 Este 20 Sudeste 0 -- -- 72
2017-09-03 19:00:00 23.4 13 Este 25 Este 0 -- -- 70
2017-09-03 18:00:00 25.7 12 Sudeste 26 Sudeste 0 -- -- 62
2017-09-03 17:00:00 26.6 15 Sudeste 28 Sudeste 0 -- -- 54
2017-09-03 16:00:00 27.1 18 Sudeste 31 Sudeste 0 -- -- 46
2017-09-03 15:00:00 28.3 12 Sur 28 Sudeste 0 -- -- 33
2017-09-03 14:00:00 26.4 15 Sudeste 23 Sudeste 0 -- -- 33
2017-09-03 13:00:00 24.2 10 Sudeste 18 Sur 0 -- -- 44
2017-09-03 12:00:00 23.8 8 Sudeste 16 Este 0 -- -- 56
2017-09-03 11:00:00 22.7 4 Noroeste 8 Sudeste 0 -- -- 62
2017-09-03 10:00:00 21.1 5 Norte 10 Este 0 -- -- 68
2017-09-03 09:00:00 18.9 0 Calma 10 Oeste 0 -- -- 78
2017-09-03 08:00:00 16.1 6 Noroeste 12 Oeste 0 -- -- 86
2017-09-03 07:00:00 15.3 5 Noroeste 7 Noroeste 0 -- -- 88
2017-09-03 06:00:00 16.5 0 Calma 17 Noroeste 0 -- -- 82
2017-09-03 05:00:00 17 10 Noroeste 15 Noroeste 0 -- -- 81
2017-09-03 04:00:00 17.4 11 Noroeste 17 Noroeste 0 -- -- 79
2017-09-03 03:00:00 17.7 11 Noroeste 15 Noroeste 0 -- -- 78
2017-09-03 02:00:00 17.3 11 Noroeste 15 Noroeste 0 -- -- 78
2017-09-03 01:00:00 17.9 12 Noroeste 17 Noroeste 0 -- -- 75
2017-09-03 00:00:00 18.4 10 Noroeste 14 Noroeste 0 -- -- 72
2017-09-02 23:00:00 19.1 9 Noroeste 13 Noroeste 0 -- -- 69
2017-09-02 22:00:00 18.9 8 Noroeste 10 Noroeste 0 -- -- 67
2017-09-02 21:00:00 20.9 0 Calma 15 Este 0 -- -- 60
2017-09-02 20:00:00 22.2 8 Este 25 Este 0 -- -- 52
2017-09-02 19:00:00 24 12 Este 28 Este 0 -- -- 48
2017-09-02 18:00:00 25.2 16 Este 31 Sudeste 0 -- -- 46
2017-09-02 17:00:00 26.4 19 Sudeste 32 Este 0 -- -- 39
2017-09-02 16:00:00 26.2 22 Sudeste 37 Sudeste 0 -- -- 34
2017-09-02 15:00:00 25.6 23 Sudeste 35 Sudeste 0 -- -- 43
2017-09-02 14:00:00 26.1 9 Este 24 Sur 0 -- -- 29
2017-09-02 13:00:00 25 14 Sudeste 30 Sudeste 0 -- -- 36
2017-09-02 12:00:00 23.5 14 Sudeste 30 Sudeste 0 -- -- 46
2017-09-02 11:00:00 21.3 8 Sudeste 13 Sudeste 0 -- -- 61
2017-09-02 10:00:00 19.6 4 Este 9 Este 0 -- -- 69
2017-09-02 09:00:00 16.8 4 Nordeste 11 Noroeste 0 -- -- 76
2017-09-02 08:00:00 14.5 9 Noroeste 12 Oeste 0 -- -- 84
2017-09-02 07:00:00 14.9 6 Oeste 11 Oeste 0 -- -- 84
2017-09-02 06:00:00 15.1 8 Oeste 10 Noroeste 0 -- -- 83
2017-09-02 05:00:00 17.1 10 Noroeste 13 Noroeste 0.2 -- -- 74
2017-09-02 04:00:00 18.8 5 Norte 15 Noroeste 0 -- -- 75
2017-09-02 03:00:00 18.7 7 Noroeste 10 Noroeste 0 -- -- 90
2017-09-02 02:00:00 19.4 8 Oeste 15 Oeste 0 -- -- 86
2017-09-02 01:00:00 19.7 0 Calma 7 Sudeste 0 -- -- 78
2017-09-02 00:00:00 20.5 3 Sudeste 12 Sudeste 0 -- -- 76
2017-09-01 23:00:00 20.8 6 Sudeste 17 Sudeste 0 -- -- 75
2017-09-01 22:00:00 21.1 12 Sudeste 21 Sudeste 0 -- -- 73
2017-09-01 21:00:00 21.4 9 Sudeste 21 Este 0 -- -- 73
2017-09-01 20:00:00 22 12 Sudeste 28 Este 0 -- -- 71
2017-09-01 19:00:00 22.9 19 Sudeste 31 Sudeste 0 -- -- 67
2017-09-01 18:00:00 24.3 22 Sudeste 35 Este 0 -- -- 63
2017-09-01 17:00:00 23.7 18 Sudeste 34 Este 0 -- -- 66
2017-09-01 16:00:00 26 23 Sudeste 34 Sur 0 -- -- 54
2017-09-01 15:00:00 26.6 17 Sur 33 Sudeste 0 -- -- 36
2017-09-01 14:00:00 24 12 Sudoeste 24 Sudoeste 0 -- -- 41
2017-09-01 13:00:00 23.8 13 Sudoeste 26 Sudoeste 0 -- -- 45
2017-09-01 12:00:00 22.5 8 Oeste 17 Sudeste 0 -- -- 49
2017-09-01 11:00:00 21.5 9 Sudeste 16 Sudeste 0 -- -- 65
2017-09-01 10:00:00 19.5 6 Oeste 11 Noroeste 0 -- -- 71
2017-09-01 09:00:00 18.4 0 Calma 5 Sur 0 -- -- 88
2017-09-01 08:00:00 17.2 3 Noroeste 10 Noroeste 0 -- -- 92
2017-09-01 07:00:00 -- -- -- 6 Oeste -- -- -- --
2017-09-01 06:00:00 17 2 Noroeste 10 Noroeste 0 -- -- 92
2017-09-01 05:00:00 16.5 7 Noroeste 10 Noroeste 0 -- -- 92
2017-09-01 04:00:00 16.1 6 Noroeste 8 Noroeste 0 -- -- 93
2017-09-01 03:00:00 15.4 4 Noroeste 8 Este 0 -- -- 95
2017-09-01 02:00:00 16.3 3 Oeste 10 Noroeste 0 -- -- 91
2017-09-01 01:00:00 16.6 4 Noroeste 7 Noroeste 0 -- -- 90
2017-09-01 00:00:00 17.5 3 Noroeste 9 Noroeste 0 -- -- 87
2017-08-31 23:00:00 18.8 2 Noroeste 7 Oeste 0 -- -- 82
2017-08-31 22:00:00 20.1 4 Noroeste 10 Norte 0 -- -- 74
2017-08-31 21:00:00 20.6 4 Nordeste 12 Este 0 -- -- 73
2017-08-31 20:00:00 20.8 8 Este 17 Este 0 -- -- 73
2017-08-31 19:00:00 21.4 8 Este 17 Este 0 -- -- 72
2017-08-31 18:00:00 22 8 Este 22 Este 0 -- -- 71
2017-08-31 17:00:00 22.7 13 Este 21 Sudeste 0 -- -- 72
2017-08-31 16:00:00 23 5 Este 15 Este 0 -- -- 71
2017-08-31 15:00:00 22.6 3 Este 11 Sudeste 0 -- -- 75
2017-08-31 14:00:00 20.7 7 Este 21 Sudeste 0 -- -- 85
2017-08-31 13:00:00 21.6 4 Este 9 Sudeste 0 -- -- 85
2017-08-31 12:00:00 22 5 Sudeste 8 Sudeste 0 -- -- 83
2017-08-31 11:00:00 22 4 Oeste 10 Noroeste 0 -- -- 79
2017-08-31 10:00:00 20.9 3 Este 11 Oeste 0.2 -- -- 89
2017-08-31 09:00:00 19.7 3 Sudeste 8 Noroeste 0.6 -- -- 94
2017-08-31 08:00:00 19.6 5 Noroeste 9 Noroeste 0.6 -- -- 92
2017-08-31 07:00:00 19.7 5 Noroeste 9 Noroeste 0.8 -- -- 91
2017-08-31 06:00:00 19.7 4 Nordeste 14 Noroeste 0.4 -- -- 89
2017-08-31 05:00:00 20.1 8 Noroeste 10 Noroeste 0 -- -- 81
2017-08-31 04:00:00 20 2 Noroeste 6 Noroeste 0 -- -- 79
2017-08-31 03:00:00 20.6 5 Oeste 12 Noroeste 0 -- -- 76
2017-08-31 02:00:00 20.7 5 Noroeste 15 Noroeste 0 -- -- 74
2017-08-31 01:00:00 20.6 7 Noroeste 13 Oeste 0 -- -- 76
2017-08-31 00:00:00 20.6 3 Noroeste 5 Noroeste 0 -- -- 78
2017-08-30 23:00:00 22 3 Sur 12 Sur 0 -- -- 75
2017-08-30 22:00:00 23.3 6 Sur 13 Sudoeste 0 -- -- 69
2017-08-30 21:00:00 23.9 4 Sur 13 Sudoeste 0 -- -- 65
2017-08-30 20:00:00 25 7 Sudoeste 19 Sudoeste 0 -- -- 59
2017-08-30 19:00:00 26.3 11 Sudoeste 22 Sur 0 -- -- 54
2017-08-30 18:00:00 27.8 13 Sudoeste 29 Sudoeste 0 -- -- 49
2017-08-30 17:00:00 29.1 13 Sur 32 Sur 0 -- -- 44
2017-08-30 16:00:00 29.5 20 Sudoeste 35 Sudoeste 0 -- -- 42
2017-08-30 15:00:00 29.4 14 Sur 30 Sur 0 -- -- 43
2017-08-30 14:00:00 29.9 17 Sur 32 Sudeste 0 -- -- 41
2017-08-30 13:00:00 28.6 18 Sudoeste 33 Sudoeste 0 -- -- 44
2017-08-30 12:00:00 28.1 9 Sudoeste 18 Sudoeste 0 -- -- 43
2017-08-30 11:00:00 25.8 7 Sur 13 Sudoeste 0 -- -- 52
2017-08-30 10:00:00 24.4 4 Sudeste 8 Sudeste 0 -- -- 66
2017-08-30 09:00:00 20.8 4 Noroeste 15 Sudeste 0 -- -- 85
2017-08-30 08:00:00 20.2 2 Sur 6 Este 0 -- -- 87
2017-08-30 07:00:00 20.1 4 Este 8 Este 0.4 -- -- 87
2017-08-30 06:00:00 21.8 0 Calma 6 Norte 0.2 -- -- 76
2017-08-30 05:00:00 23.4 3 Sudeste 42 Sudoeste 0 -- -- 56
2017-08-30 04:00:00 23.9 28 Sudoeste 50 Sudoeste 0 -- -- 53
2017-08-30 03:00:00 21 2 Sudeste 9 Noroeste 0 -- -- 61
2017-08-30 02:00:00 21.8 3 Este 8 Sudoeste 0 -- -- 59
2017-08-30 01:00:00 23.5 4 Nordeste 9 Sudeste 0 -- -- 53
2017-08-30 00:00:00 26 5 Este 15 Oeste 0 -- -- 46
2017-08-29 23:00:00 26.1 8 Sur 13 Sudeste 0 -- -- 46
2017-08-29 22:00:00 25.4 3 Sudoeste 12 Sudoeste 0 -- -- 49
2017-08-29 21:00:00 25.9 4 Sur 15 Noroeste 0 -- -- 48
2017-08-29 20:00:00 27.9 8 Noroeste 21 Oeste 0 -- -- 47
2017-08-29 19:00:00 27.2 12 Sudoeste 36 Sudoeste 0 -- -- 56
2017-08-29 18:00:00 30 17 Sur 32 Sur 0 -- -- 41
2017-08-29 17:00:00 31.3 11 Sur 30 Sudoeste 0 -- -- 38
2017-08-29 16:00:00 32.8 19 Sudoeste 33 Sudoeste 0 -- -- 35
2017-08-29 15:00:00 32.8 10 Sudoeste 27 Sudoeste 0 -- -- 38
2017-08-29 14:00:00 33.3 18 Sudoeste 33 Sudoeste 0 -- -- 35
2017-08-29 13:00:00 32.1 16 Sur 29 Sur 0 -- -- 40
2017-08-29 12:00:00 31.1 15 Sur 28 Sur 0 -- -- 44
2017-08-29 11:00:00 29.9 6 Este 18 Sudeste 0 -- -- 48
2017-08-29 10:00:00 27.2 2 Este 7 Sudeste 0 -- -- 56
2017-08-29 09:00:00 24.3 0 Calma 5 Noroeste 0 -- -- 65
2017-08-29 08:00:00 20 3 Noroeste 9 Noroeste 0 -- -- 79
2017-08-29 07:00:00 19.8 2 Norte 8 Noroeste 0 -- -- 73
2017-08-29 06:00:00 20.5 4 Noroeste 8 Noroeste 0 -- -- 65
2017-08-29 05:00:00 21.8 9 Noroeste 11 Noroeste 0 -- -- 58
2017-08-29 04:00:00 21 4 Oeste 13 Noroeste 0 -- -- 60
2017-08-29 03:00:00 21.5 2 Norte 7 Oeste 0 -- -- 61
2017-08-29 02:00:00 23.4 5 Noroeste 13 Noroeste 0 -- -- 53
2017-08-29 01:00:00 24.2 5 Noroeste 7 Oeste 0 -- -- 57
2017-08-29 00:00:00 24.9 5 Sur 12 Noroeste 0 -- -- 72
2017-08-28 23:00:00 25.4 3 Sur 10 Sur 0 -- -- 76
2017-08-28 22:00:00 25.5 4 Sudeste 5 Sudeste 0 -- -- 74
2017-08-28 21:00:00 25.8 0 Calma 5 Sudeste 0 -- -- 74
2017-08-28 20:00:00 26.4 4 Sudeste 9 Sudeste 0 -- -- 73
2017-08-28 19:00:00 27 9 Sudeste 22 Sudeste 0 -- -- 69
2017-08-28 18:00:00 28.3 16 Sudeste 26 Sudeste 0 -- -- 64
2017-08-28 17:00:00 30 18 Sur 27 Sudeste 0 -- -- 59
2017-08-28 16:00:00 31.5 18 Sur 29 Sur 0 -- -- 56
2017-08-28 15:00:00 34.3 19 Sudeste 29 Sudeste 0 -- -- 42
2017-08-28 14:00:00 36.1 9 Sudeste 24 Este 0 -- -- 29
2017-08-28 13:00:00 33.4 9 Este 19 Este 0 -- -- 44
2017-08-28 12:00:00 31.6 8 Sudeste 16 Sudeste 0 -- -- 50
2017-08-28 11:00:00 29.1 6 Sudeste 12 Sudeste 0 -- -- 59
2017-08-28 10:00:00 26.3 4 Este 7 Este 0 -- -- 70
2017-08-28 09:00:00 23.4 0 Calma 14 Noroeste 0 -- -- 80
2017-08-28 08:00:00 20.4 10 Noroeste 14 Noroeste 0 -- -- 88
2017-08-28 07:00:00 19.6 5 Noroeste 8 Noroeste 0 -- -- 90
2017-08-28 06:00:00 19.9 5 Noroeste 8 Noroeste 0 -- -- 89
2017-08-28 05:00:00 21.1 10 Noroeste 14 Noroeste 0 -- -- 85
2017-08-28 04:00:00 21.7 6 Noroeste 10 Oeste 0 -- -- 84
2017-08-28 03:00:00 22.3 5 Noroeste 14 Noroeste 0 -- -- 82
2017-08-28 02:00:00 22.3 4 Noroeste 13 Noroeste 0 -- -- 87
2017-08-28 01:00:00 22.9 10 Noroeste 13 Oeste 0 -- -- 86
2017-08-28 00:00:00 23.5 4 Noroeste 6 Sudeste 0 -- -- 86
2017-08-27 23:00:00 24.9 4 Sudeste 14 Sudeste 0 -- -- 82
2017-08-27 22:00:00 25.7 10 Sudeste 33 Sudeste 0 -- -- 77
2017-08-27 21:00:00 26 4 Sur 16 Oeste 0 -- -- 74
2017-08-27 20:00:00 25.9 3 Sudeste 14 Sudeste 0 -- -- 77
2017-08-27 19:00:00 27 12 Sudeste 22 Sudeste 0 -- -- 71
2017-08-27 18:00:00 29.2 16 Sudeste 24 Sudeste 0 -- -- 64
2017-08-27 17:00:00 30.1 13 Sudeste 24 Este 0 -- -- 61
2017-08-27 16:00:00 31.3 15 Sudeste 30 Este 0 -- -- 58
2017-08-27 15:00:00 32 17 Sudeste 27 Sudeste 0 -- -- 55
2017-08-27 14:00:00 31.6 8 Este 19 Sudeste 0 -- -- 54
2017-08-27 13:00:00 30.4 12 Sudeste 23 Sudeste 0 -- -- 58
2017-08-27 12:00:00 28.5 5 Este 18 Sudeste 0 -- -- 61
2017-08-27 11:00:00 26.9 6 Este 15 Este 0 -- -- 69
2017-08-27 10:00:00 25.6 5 Nordeste 17 Nordeste 0 -- -- 75
2017-08-27 09:00:00 23.5 4 Nordeste 10 Este 0 -- -- 81
2017-08-27 08:00:00 20.8 5 Oeste 13 Noroeste 0 -- -- 85
2017-08-27 07:00:00 20.7 9 Noroeste 14 Noroeste 0 -- -- 85
2017-08-27 06:00:00 21.8 10 Noroeste 15 Noroeste 0 -- -- 82
2017-08-27 05:00:00 22 5 Noroeste 10 Oeste 0 -- -- 83
2017-08-27 04:00:00 21.5 6 Noroeste 9 Noroeste 0 -- -- 82
2017-08-27 03:00:00 21.8 4 Noroeste 7 Oeste 0 -- -- 81
2017-08-27 02:00:00 22.4 4 Noroeste 9 Sudoeste 0 -- -- 80
2017-08-27 01:00:00 22.6 5 Noroeste 8 Noroeste 0 -- -- 80
2017-08-27 00:00:00 22.9 4 Noroeste 9 Norte 0 -- -- 81
2017-08-26 23:00:00 23.7 0 Calma 8 Sudoeste 0 -- -- 84
2017-08-26 22:00:00 24.2 5 Sudoeste 9 Sudeste 0 -- -- 83
2017-08-26 21:00:00 25.1 7 Sudeste 13 Sur 0 -- -- 78
2017-08-26 20:00:00 26.8 8 Sudeste 16 Sudeste 0 -- -- 66
2017-08-26 19:00:00 29 12 Sudeste 21 Sur 0 -- -- 59
2017-08-26 18:00:00 30 14 Sudeste 23 Sudeste 0 -- -- 59
2017-08-26 17:00:00 31.3 17 Sudeste 26 Sudeste 0 -- -- 55
2017-08-26 16:00:00 31.6 12 Este 24 Sudeste 0 -- -- 52
2017-08-26 15:00:00 31.1 12 Sudeste 25 Sudeste 0 -- -- 57
2017-08-26 14:00:00 30.9 13 Sudeste 28 Sudeste 0 -- -- 58
2017-08-26 13:00:00 31.8 12 Sudeste 23 Sudeste 0 -- -- 51
2017-08-26 12:00:00 30 4 Sudeste 14 Este 0 -- -- 55
2017-08-26 11:00:00 28.4 7 Este 15 Sudeste 0 -- -- 60
2017-08-26 10:00:00 26.8 7 Este 11 Este 0 -- -- 65
2017-08-26 09:00:00 23.6 5 Noroeste 14 Noroeste 0 -- -- 67
2017-08-26 08:00:00 20.6 11 Noroeste 18 Noroeste 0 -- -- 69
2017-08-26 07:00:00 19.9 9 Noroeste 17 Noroeste 0 -- -- 73
2017-08-26 06:00:00 19.6 11 Noroeste 14 Noroeste 0 -- -- 71
2017-08-26 05:00:00 20 7 Noroeste 15 Noroeste 0 -- -- 74
2017-08-26 04:00:00 20 9 Noroeste 12 Oeste 0 -- -- 79
2017-08-26 03:00:00 21 6 Oeste 13 Noroeste 0 -- -- 81
2017-08-26 02:00:00 21.8 10 Noroeste 13 Noroeste 0 -- -- 82
2017-08-26 01:00:00 21.8 4 Norte 11 Oeste 0 -- -- 86
2017-08-26 00:00:00 22.3 5 Sudoeste 6 Sudoeste 0 -- -- 88
2017-08-25 23:00:00 23.4 0 Calma 10 Sudoeste 0 -- -- 81
2017-08-25 22:00:00 23.8 7 Sudoeste 9 Sudoeste 0 -- -- 83
2017-08-25 21:00:00 25.1 4 Sur 15 Sudeste 0 -- -- 76
2017-08-25 20:00:00 28.1 10 Este 17 Este 0 -- -- 62
2017-08-25 19:00:00 30.1 11 Sudeste 19 Sudeste 0 -- -- 46
2017-08-25 18:00:00 30.2 13 Sudeste 23 Este 0 -- -- 45
2017-08-25 17:00:00 31.4 14 Sudeste 28 Sudeste 0 -- -- 38
2017-08-25 16:00:00 31.3 13 Sudeste 27 Sudeste 0 -- -- 42
2017-08-25 15:00:00 32.5 17 Sudeste 28 Sudeste 0 -- -- 40
2017-08-25 14:00:00 32.3 12 Sudeste 27 Sudeste 0 -- -- 34
2017-08-25 13:00:00 31.5 9 Este 20 Este 0 -- -- 39
2017-08-25 12:00:00 30.4 8 Sudeste 17 Sudeste 0 -- -- 37
2017-08-25 11:00:00 28.2 7 Este 14 Este 0 -- -- 44
2017-08-25 10:00:00 24.8 4 Este 8 Sudeste 0 -- -- 51
2017-08-25 09:00:00 21.7 4 Noroeste 14 Noroeste 0 -- -- 47
2017-08-25 08:00:00 18.7 10 Noroeste 14 Noroeste 0 -- -- 50
2017-08-25 07:00:00 17.8 9 Noroeste 15 Noroeste 0 -- -- 55
2017-08-25 06:00:00 17.8 10 Noroeste 14 Noroeste 0 -- -- 59
2017-08-25 05:00:00 18.4 10 Noroeste 15 Noroeste 0 -- -- 64
2017-08-25 04:00:00 18.8 10 Noroeste 17 Noroeste 0 -- -- 67
2017-08-25 03:00:00 19.3 9 Noroeste 15 Noroeste 0 -- -- 72
2017-08-25 02:00:00 19.8 9 Noroeste 15 Noroeste 0 -- -- 79
2017-08-25 01:00:00 20.6 9 Noroeste 14 Noroeste 0 -- -- 81
2017-08-25 00:00:00 21.2 8 Noroeste 13 Noroeste 0 -- -- 81
2017-08-24 23:00:00 21.9 6 Noroeste -- -- 0 -- -- 81
2017-08-24 22:00:00 23.7 0 Calma 6 Nordeste 0 -- -- 76
2017-08-24 21:00:00 25.7 7 Sudeste 20 Sudeste 0 -- -- 71
2017-08-24 20:00:00 27.7 11 Sudeste 25 Sudeste 0 -- -- 61
2017-08-24 19:00:00 29.5 17 Sudeste 29 Sudeste 0 -- -- 54
2017-08-24 18:00:00 31.4 18 Sudeste 31 Sudeste 0 -- -- 44
2017-08-24 17:00:00 31.6 20 Sudeste 32 Este 0 -- -- 46
2017-08-24 16:00:00 31.9 17 Sudeste 31 Sudeste 0 -- -- 45
2017-08-24 15:00:00 33 15 Sudeste 26 Sudeste 0 -- -- 40
2017-08-24 14:00:00 32.7 18 Sudeste 29 Sudeste 0 -- -- 38
2017-08-24 13:00:00 30.9 12 Sudeste 20 Sudeste 0 -- -- 40
2017-08-24 12:00:00 28.5 5 Sudeste 10 Este 0 -- -- 41
2017-08-24 11:00:00 24.7 6 Noroeste 12 Noroeste 0 -- -- 55
2017-08-24 10:00:00 23.2 6 Sudoeste 13 Oeste 0 -- -- 58
2017-08-24 09:00:00 21.8 4 Oeste 8 Oeste 0 -- -- 67
2017-08-24 08:00:00 19.8 3 Noroeste 6 Noroeste 0 -- -- 73
2017-08-24 07:00:00 18.9 0 Calma 9 Norte 0 -- -- 78
2017-08-24 06:00:00 20.1 4 Norte 22 Sudeste 0 -- -- 71
2017-08-24 05:00:00 19.8 4 Sudeste 12 Noroeste 0 -- -- 62
2017-08-24 04:00:00 19 3 Noroeste 9 Noroeste 0 -- -- 60
2017-08-24 03:00:00 18.9 5 Noroeste 9 Noroeste 0 -- -- 72
2017-08-24 02:00:00 21.2 5 Noroeste 10 Noroeste 0.2 -- -- 59
2017-08-24 01:00:00 21.2 2 Este 10 Noroeste 0 -- -- 67
2017-08-24 00:00:00 21.9 3 Oeste 12 Noroeste 0 -- -- 57
2017-08-23 23:00:00 21.4 4 Noroeste 8 Sudoeste 0 -- -- 68
2017-08-23 22:00:00 23.1 8 Sur 12 Sur 0 -- -- 62
2017-08-23 21:00:00 26.5 10 Sur 22 Sudoeste 0.6 -- -- 54
2017-08-23 20:00:00 29.7 6 Sur 21 Sudeste 0 -- -- 35
2017-08-23 19:00:00 30.8 15 Sudeste 23 Este 0 -- -- 39
2017-08-23 18:00:00 31.3 17 Sudeste 28 Sudeste 0 -- -- 38
2017-08-23 17:00:00 32.1 18 Sudeste 28 Sudeste 0 -- -- 35
2017-08-23 16:00:00 31.7 17 Sudeste 29 Este 0 -- -- 42
2017-08-23 15:00:00 31.1 17 Sudeste 30 Sudeste 0 -- -- 43
2017-08-23 14:00:00 31.3 16 Sudeste 23 Este 0 -- -- 50
2017-08-23 13:00:00 31.1 8 Este 19 Este 0 -- -- 39
2017-08-23 12:00:00 29.6 5 Este 12 Sudeste 0 -- -- 43
2017-08-23 11:00:00 27.6 7 Sudeste 13 Sudeste 0 -- -- 53
2017-08-23 10:00:00 25.5 4 Este 8 Sudeste 0 -- -- 54
2017-08-23 09:00:00 22.9 2 Norte 9 Noroeste 0 -- -- 59
2017-08-23 08:00:00 18.2 6 Noroeste 11 Noroeste 0 -- -- 64
2017-08-23 07:00:00 16.9 5 Noroeste 9 Noroeste 0 -- -- 69
2017-08-23 06:00:00 17.1 4 Noroeste 9 Noroeste 0 -- -- 69
2017-08-23 05:00:00 17.8 5 Noroeste 12 Noroeste 0 -- -- 67
2017-08-23 04:00:00 18.9 10 Sudoeste 15 Sudoeste 0 -- -- 64
2017-08-23 03:00:00 19.3 6 Noroeste 12 Noroeste 0 -- -- 64
2017-08-23 02:00:00 19.8 6 Noroeste 13 Oeste 0 -- -- 64
2017-08-23 01:00:00 21 5 Noroeste 15 Noroeste 0 -- -- 67
2017-08-23 00:00:00 21.4 7 Noroeste 12 Noroeste 0 -- -- 70
2017-08-22 23:00:00 22.3 7 Noroeste 9 Noroeste 0 -- -- 68
2017-08-22 22:00:00 23.7 4 Oeste 10 Sudeste 0 -- -- 62
2017-08-22 21:00:00 26 5 Sudeste 18 Sudeste 0 -- -- 54
2017-08-22 20:00:00 28.4 13 Sudeste 25 Este 0 -- -- 46
2017-08-22 19:00:00 29.8 16 Sudeste 27 Sudeste 0 -- -- 49
2017-08-22 18:00:00 30.6 18 Sudeste 30 Sudeste 0 -- -- 48
2017-08-22 17:00:00 30.7 23 Sudeste 35 Sudeste 0 -- -- 49
2017-08-22 16:00:00 31.4 24 Sudeste 36 Sudeste 0 -- -- 50
2017-08-22 15:00:00 32 21 Sudeste 35 Sudeste 0 -- -- 52
2017-08-22 14:00:00 31.9 17 Sudeste 26 Sudeste 0 -- -- 51
2017-08-22 13:00:00 31.6 12 Sudeste 24 Sudeste 0 -- -- 43
2017-08-22 12:00:00 29.8 12 Sudeste 22 Sudeste 0 -- -- 47
2017-08-22 11:00:00 27.6 8 Este 13 Este 0 -- -- 59
2017-08-22 10:00:00 25.1 4 Este 10 Sudeste 0 -- -- 69
2017-08-22 09:00:00 22.4 5 Sudeste 7 Sudeste 0 -- -- 79
2017-08-22 08:00:00 18.9 2 Noroeste 9 Noroeste 0 -- -- 88
2017-08-22 07:00:00 18.6 6 Noroeste 9 Noroeste 0 -- -- 89
2017-08-22 06:00:00 18.7 5 Noroeste 9 Noroeste 0 -- -- 89
2017-08-22 05:00:00 19.2 4 Noroeste 9 Noroeste 0 -- -- 88
2017-08-22 04:00:00 19.6 5 Noroeste 9 Noroeste 0 -- -- 87
2017-08-22 03:00:00 20 5 Noroeste 9 Noroeste 0 -- -- 86
2017-08-22 02:00:00 20.3 6 Noroeste 10 Noroeste 0 -- -- 84
2017-08-22 01:00:00 20.5 4 Noroeste 5 Noroeste 0 -- -- 82
2017-08-22 00:00:00 21.5 4 Noroeste 9 Noroeste 0 -- -- 79